Time;durP1;ratioP1;P1;durP2;ratioP2;P2;SDS_P1;SDS_P2;PMS_P1;PMS_P2;Temp;Humidity;BMP_temperature;BMP_pressure;BME280_temperature;BME280_humidity;BME280_pressure;Samples;Min_cycle;Max_cycle;Signal;HPM_P1;HPM_P2
2023/05/12 00:01:27;;;;;;;6.20;5.13;;;12.40;99.90;;;;;;5072709;28;20202;-51
2023/05/12 00:03:54;;;;;;;5.87;4.93;;;12.40;99.90;;;;;;5065538;28;20258;-52
2023/05/12 00:06:21;;;;;;;5.73;5.23;;;12.40;99.90;;;;;;5071232;28;20633;-49
2023/05/12 00:08:48;;;;;;;5.70;5.20;;;12.30;99.90;;;;;;5075529;28;20210;-53
2023/05/12 00:11:16;;;;;;;5.43;4.93;;;12.40;99.90;;;;;;5072424;28;20182;-54
2023/05/12 00:13:43;;;;;;;6.37;5.27;;;12.40;99.90;;;;;;5081964;28;20202;-51
2023/05/12 00:16:10;;;;;;;6.47;5.13;;;12.40;99.90;;;;;;5068847;28;20263;-54
2023/05/12 00:18:38;;;;;;;5.70;5.20;;;12.40;99.90;;;;;;5083346;28;20186;-52
2023/05/12 00:21:07;;;;;;;6.90;5.50;;;12.30;99.90;;;;;;5051004;28;20222;-53
2023/05/12 00:23:34;;;;;;;5.80;5.40;;;12.30;99.90;;;;;;5078476;28;20190;-54
2023/05/12 00:26:01;;;;;;;7.10;5.83;;;12.30;99.90;;;;;;5076659;28;20613;-55
2023/05/12 00:28:30;;;;;;;5.40;4.90;;;12.20;99.90;;;;;;5085663;28;20194;-53
2023/05/12 00:31:01;;;;;;;5.53;5.00;;;12.30;99.90;;;;;;5065385;28;20186;-49
2023/05/12 00:33:28;;;;;;;5.47;5.13;;;12.30;99.90;;;;;;5084834;28;20251;-53
2023/05/12 00:35:55;;;;;;;5.83;5.33;;;12.40;99.90;;;;;;5055019;28;20210;-52
2023/05/12 00:38:22;;;;;;;5.07;4.67;;;12.30;99.90;;;;;;5076180;28;20405;-54
2023/05/12 00:40:49;;;;;;;5.33;4.93;;;12.40;99.90;;;;;;5082289;28;20202;-55
2023/05/12 00:43:16;;;;;;;5.80;5.27;;;12.40;99.90;;;;;;5084641;28;20194;-54
2023/05/12 00:45:45;;;;;;;6.43;5.17;;;12.40;99.90;;;;;;5081673;28;20602;-50
2023/05/12 00:48:12;;;;;;;6.27;4.93;;;12.40;99.90;;;;;;5076159;28;20190;-51
2023/05/12 00:50:39;;;;;;;5.83;5.33;;;12.40;99.90;;;;;;5061377;28;20222;-54
2023/05/12 00:53:08;;;;;;;5.87;5.27;;;12.40;99.90;;;;;;5067625;28;20996;-56
2023/05/12 00:55:36;;;;;;;6.53;5.50;;;12.40;99.90;;;;;;5083283;28;20205;-54
2023/05/12 00:58:03;;;;;;;7.53;5.73;;;12.40;99.90;;;;;;5080070;28;20202;-54
2023/05/12 01:00:31;;;;;;;5.37;4.97;;;12.40;99.90;;;;;;5084050;28;20304;-56
2023/05/12 01:02:59;;;;;;;5.30;4.90;;;12.50;99.90;;;;;;5071461;28;20275;-53
2023/05/12 01:05:36;;;;;;;5.63;5.10;;;12.30;99.90;;;;;;5060053;28;20226;-52
2023/05/12 01:08:03;;;;;;;5.30;4.90;;;12.50;99.90;;;;;;5070476;28;20202;-49
2023/05/12 01:10:30;;;;;;;7.03;5.47;;;12.50;99.90;;;;;;5084026;28;20214;-52
2023/05/12 01:12:57;;;;;;;5.50;4.87;;;12.50;99.90;;;;;;5080483;28;20255;-53
2023/05/12 01:15:25;;;;;;;5.50;5.00;;;12.50;99.90;;;;;;5083749;28;20194;-51
2023/05/12 01:17:55;;;;;;;5.17;4.77;;;12.50;99.90;;;;;;5072525;28;20806;-51
2023/05/12 01:20:25;;;;;;;5.53;5.03;;;12.50;99.90;;;;;;5056836;28;21032;-52
2023/05/12 01:22:55;;;;;;;5.23;4.70;;;12.50;99.90;;;;;;5075293;28;20206;-54
2023/05/12 01:25:25;;;;;;;5.00;4.60;;;12.60;99.90;;;;;;5082184;28;20297;-51
2023/05/12 01:27:54;;;;;;;6.10;5.50;;;12.60;99.90;;;;;;5080678;28;20190;-51
2023/05/12 01:30:22;;;;;;;6.60;4.70;;;12.60;99.90;;;;;;5082444;28;20224;-53
2023/05/12 01:32:50;;;;;;;5.50;5.03;;;12.60;99.90;;;;;;5071912;28;20186;-51
2023/05/12 01:35:17;;;;;;;5.00;4.60;;;12.60;99.90;;;;;;5067549;28;20217;-53
2023/05/12 01:37:50;;;;;;;5.53;4.90;;;12.60;99.90;;;;;;5062985;28;20217;-52
2023/05/12 01:40:17;;;;;;;4.93;4.57;;;12.60;99.90;;;;;;5074170;28;20242;-55
2023/05/12 01:42:44;;;;;;;5.17;4.77;;;12.70;99.90;;;;;;5082807;28;20196;-54
2023/05/12 01:45:13;;;;;;;4.93;4.53;;;12.70;99.90;;;;;;5077299;28;20190;-54
2023/05/12 01:47:40;;;;;;;6.53;4.57;;;12.70;99.90;;;;;;5076595;28;20804;-54
2023/05/12 01:50:09;;;;;;;4.40;4.00;;;12.70;99.90;;;;;;5069049;28;20341;-56
2023/05/12 01:52:37;;;;;;;4.67;4.27;;;12.70;99.90;;;;;;5060124;28;20202;-54
2023/05/12 01:55:08;;;;;;;5.30;4.80;;;12.70;99.90;;;;;;5070480;28;20199;-53
2023/05/12 01:57:43;;;;;;;5.13;4.73;;;12.70;99.90;;;;;;5078120;28;20303;-50
2023/05/12 02:00:12;;;;;;;4.53;4.23;;;12.70;99.90;;;;;;5072586;28;20966;-55
2023/05/12 02:02:43;;;;;;;4.40;4.00;;;12.60;99.90;;;;;;5079837;28;20656;-52
2023/05/12 02:05:11;;;;;;;4.83;4.40;;;12.60;99.90;;;;;;5080100;28;20233;-51
2023/05/12 02:07:38;;;;;;;5.53;4.20;;;12.70;99.90;;;;;;5054691;28;20674;-52
2023/05/12 02:10:08;;;;;;;4.60;4.27;;;12.70;99.90;;;;;;5069831;28;23791;-54
2023/05/12 02:12:36;;;;;;;4.87;4.57;;;12.70;99.90;;;;;;5079941;28;20269;-50
2023/05/12 02:15:03;;;;;;;4.77;4.13;;;12.80;99.90;;;;;;5071271;28;20194;-51
2023/05/12 02:17:32;;;;;;;4.27;3.97;;;12.80;99.90;;;;;;5081222;28;20268;-49
2023/05/12 02:20:04;;;;;;;5.37;4.43;;;12.80;99.90;;;;;;5078633;28;21007;-48
2023/05/12 02:22:31;;;;;;;5.03;4.30;;;12.70;99.90;;;;;;5072333;28;20216;-50
2023/05/12 02:24:59;;;;;;;4.93;4.00;;;12.70;99.90;;;;;;5053257;28;20692;-51
2023/05/12 02:27:48;;;;;;;6.77;4.00;;;12.70;99.90;;;;;;5069574;28;20590;-53
2023/05/12 02:30:17;;;;;;;4.33;3.90;;;12.70;99.90;;;;;;5075743;28;20217;-52
2023/05/12 02:32:43;;;;;;;4.53;4.13;;;12.70;99.90;;;;;;5081966;28;20209;-49
2023/05/12 02:35:12;;;;;;;4.60;4.20;;;12.80;99.90;;;;;;5079551;28;20217;-51
2023/05/12 02:37:40;;;;;;;4.80;4.10;;;12.80;99.90;;;;;;5071642;28;20591;-51
2023/05/12 02:40:08;;;;;;;9.83;4.03;;;12.80;99.90;;;;;;5058295;28;20340;-49
2023/05/12 02:42:37;;;;;;;5.77;4.50;;;12.80;99.90;;;;;;5062652;28;20335;-51
2023/05/12 02:45:05;;;;;;;4.30;3.90;;;12.80;99.90;;;;;;5076012;28;20189;-49
2023/05/12 02:47:32;;;;;;;3.83;3.53;;;12.70;99.90;;;;;;5083771;28;20193;-54
2023/05/12 02:49:59;;;;;;;3.83;3.53;;;12.80;99.90;;;;;;5078494;28;20772;-50
2023/05/12 02:52:27;;;;;;;4.83;3.93;;;12.80;99.90;;;;;;5067548;28;20205;-52
2023/05/12 02:54:54;;;;;;;3.97;3.67;;;12.80;99.90;;;;;;5057266;28;20228;-52
2023/05/12 02:57:22;;;;;;;4.17;3.80;;;12.80;99.90;;;;;;5067089;28;20292;-48
2023/05/12 02:59:48;;;;;;;4.80;4.37;;;12.80;99.90;;;;;;5079994;28;20691;-50
2023/05/12 03:02:15;;;;;;;4.03;3.70;;;12.80;99.90;;;;;;5079899;28;20269;-50
2023/05/12 03:04:42;;;;;;;4.40;3.97;;;12.80;99.90;;;;;;5083291;28;20279;-50
2023/05/12 03:07:09;;;;;;;4.63;4.23;;;12.80;99.90;;;;;;5079614;28;20182;-50
2023/05/12 03:09:38;;;;;;;4.63;3.90;;;12.80;99.90;;;;;;5062662;28;20229;-53
2023/05/12 03:12:05;;;;;;;3.87;3.40;;;12.80;99.90;;;;;;5046700;28;20214;-51
2023/05/12 03:14:32;;;;;;;4.27;3.87;;;12.80;99.90;;;;;;5081561;28;20707;-53
2023/05/12 03:16:59;;;;;;;4.07;3.77;;;12.80;99.90;;;;;;5079365;28;20225;-55
2023/05/12 03:19:27;;;;;;;5.67;4.40;;;12.80;99.90;;;;;;5082657;28;20221;-55
2023/05/12 03:21:53;;;;;;;4.40;4.10;;;12.80;99.90;;;;;;5077483;28;20194;-51
2023/05/12 03:24:21;;;;;;;4.20;3.83;;;12.80;99.90;;;;;;5063305;28;20410;-55
2023/05/12 03:26:49;;;;;;;4.20;3.80;;;12.80;99.90;;;;;;5057623;28;20206;-49
2023/05/12 03:29:16;;;;;;;4.30;4.00;;;12.80;99.90;;;;;;5072795;28;20222;-54
2023/05/12 03:31:43;;;;;;;4.67;4.30;;;12.90;99.90;;;;;;5078317;28;20733;-52
2023/05/12 03:34:10;;;;;;;4.27;3.73;;;12.90;99.90;;;;;;5078662;28;20190;-48
2023/05/12 03:36:37;;;;;;;4.80;4.40;;;12.80;99.90;;;;;;5075183;28;20228;-51
2023/05/12 03:39:04;;;;;;;4.83;4.40;;;12.80;99.90;;;;;;5061275;28;20228;-55
2023/05/12 03:41:33;;;;;;;4.77;4.40;;;12.80;99.90;;;;;;5062707;28;20547;-54
2023/05/12 03:44:01;;;;;;;4.90;4.40;;;12.80;99.90;;;;;;5069434;28;20205;-48
2023/05/12 03:46:27;;;;;;;4.40;3.73;;;12.80;99.90;;;;;;5081143;28;20205;-52
2023/05/12 03:48:55;;;;;;;4.70;4.20;;;12.80;99.90;;;;;;5067455;28;20590;-52
2023/05/12 03:51:22;;;;;;;7.50;4.30;;;12.80;99.90;;;;;;5073325;28;20205;-54
2023/05/12 03:53:51;;;;;;;4.57;4.17;;;12.80;99.90;;;;;;5068988;28;20194;-51
2023/05/12 03:56:20;;;;;;;4.93;4.53;;;12.80;99.90;;;;;;5078975;28;20684;-49
2023/05/12 03:58:47;;;;;;;4.73;4.20;;;12.80;99.90;;;;;;5058843;28;20229;-51
2023/05/12 04:01:17;;;;;;;4.17;3.77;;;12.80;99.90;;;;;;5080159;28;20255;-54
2023/05/12 04:03:44;;;;;;;4.30;3.97;;;12.80;99.90;;;;;;5079075;28;20866;-52
2023/05/12 04:06:11;;;;;;;4.37;4.07;;;12.80;99.90;;;;;;5076890;28;20197;-56
2023/05/12 04:08:38;;;;;;;4.90;4.40;;;12.80;99.90;;;;;;5085886;28;20669;-54
2023/05/12 04:11:08;;;;;;;6.37;3.80;;;12.80;99.90;;;;;;5073311;28;20277;-55
2023/05/12 04:13:35;;;;;;;4.27;3.97;;;12.90;99.90;;;;;;5068652;28;20295;-54
2023/05/12 04:16:02;;;;;;;4.20;3.90;;;12.80;99.90;;;;;;5073497;28;20190;-52
2023/05/12 04:18:31;;;;;;;3.93;3.63;;;12.80;99.90;;;;;;5077863;28;20214;-52
2023/05/12 04:20:57;;;;;;;7.40;3.70;;;12.90;99.90;;;;;;5077475;28;20201;-54
2023/05/12 04:23:25;;;;;;;4.77;4.37;;;12.90;99.90;;;;;;5086495;28;20272;-53
2023/05/12 04:25:52;;;;;;;4.57;4.00;;;12.90;99.90;;;;;;5071190;28;20206;-52
2023/05/12 04:28:19;;;;;;;4.93;4.23;;;12.90;99.90;;;;;;5065198;28;20706;-53
2023/05/12 04:30:47;;;;;;;3.83;3.40;;;13.00;99.90;;;;;;5071056;28;20222;-53
2023/05/12 04:33:14;;;;;;;4.40;3.97;;;13.00;99.90;;;;;;5071863;28;20302;-51
2023/05/12 04:35:43;;;;;;;4.23;3.87;;;13.10;99.90;;;;;;5077349;28;20205;-51
2023/05/12 04:38:12;;;;;;;4.37;3.63;;;13.10;99.90;;;;;;5079301;28;20211;-54
2023/05/12 04:40:39;;;;;;;4.47;4.13;;;13.10;99.90;;;;;;5065350;28;20303;-56
2023/05/12 04:43:06;;;;;;;5.20;4.13;;;13.10;99.90;;;;;;5084411;28;20210;-53
2023/05/12 04:45:32;;;;;;;5.00;3.80;;;13.10;99.90;;;;;;5041256;28;20267;-52
2023/05/12 04:47:59;;;;;;;4.83;3.47;;;13.20;99.90;;;;;;5076788;28;20214;-50
2023/05/12 04:50:27;;;;;;;4.50;3.87;;;13.20;99.90;;;;;;5081347;28;20854;-54
2023/05/12 04:52:56;;;;;;;3.80;3.50;;;13.20;99.90;;;;;;5084503;28;20717;-55
2023/05/12 04:55:23;;;;;;;4.67;3.87;;;13.20;99.90;;;;;;5065658;28;20205;-55
2023/05/12 04:57:50;;;;;;;5.33;4.20;;;13.20;99.90;;;;;;5068404;28;20214;-55
2023/05/12 05:00:17;;;;;;;4.77;4.30;;;13.30;99.90;;;;;;5045990;28;20236;-52
2023/05/12 05:02:46;;;;;;;4.40;3.87;;;13.30;99.90;;;;;;5072980;28;20206;-51
2023/05/12 05:05:13;;;;;;;6.50;4.00;;;13.30;99.90;;;;;;5067916;28;20658;-53
2023/05/12 05:07:40;;;;;;;4.63;4.07;;;13.40;99.90;;;;;;5072151;28;20266;-50
2023/05/12 05:10:09;;;;;;;4.80;4.23;;;13.40;99.90;;;;;;5071578;28;20222;-51
2023/05/12 05:12:37;;;;;;;4.20;3.80;;;13.40;99.90;;;;;;5067041;28;20214;-50
2023/05/12 05:15:05;;;;;;;9.50;4.07;;;13.40;99.90;;;;;;5062247;28;20218;-50
2023/05/12 05:17:33;;;;;;;4.57;3.60;;;13.40;99.90;;;;;;5069482;28;20266;-48
2023/05/12 05:19:59;;;;;;;4.50;3.93;;;13.50;99.90;;;;;;5080996;28;20227;-51
2023/05/12 05:22:30;;;;;;;4.60;3.40;;;13.60;99.90;;;;;;5077133;28;20277;-54
2023/05/12 05:24:57;;;;;;;5.33;3.97;;;13.60;99.90;;;;;;5070506;28;20247;-52
2023/05/12 05:27:26;;;;;;;9.63;4.10;;;13.60;99.90;;;;;;5053119;28;20624;-54
2023/05/12 05:29:53;;;;;;;4.10;3.80;;;13.60;99.90;;;;;;5077776;28;20214;-53
2023/05/12 05:32:20;;;;;;;6.57;3.97;;;13.70;99.90;;;;;;5057751;28;20210;-53
2023/05/12 05:34:47;;;;;;;4.23;3.87;;;13.80;99.90;;;;;;5081293;28;20193;-53
2023/05/12 05:37:14;;;;;;;5.27;4.17;;;13.80;99.90;;;;;;5069778;28;20572;-52
2023/05/12 05:39:40;;;;;;;12.60;5.00;;;13.90;99.90;;;;;;5078761;28;20911;-55
2023/05/12 05:42:07;;;;;;;5.07;4.10;;;13.90;99.90;;;;;;5058433;28;20220;-54
2023/05/12 05:44:36;;;;;;;5.63;4.23;;;14.00;99.90;;;;;;5058669;28;20209;-55
2023/05/12 05:47:05;;;;;;;5.67;4.20;;;14.00;99.90;;;;;;5062155;28;20213;-54
2023/05/12 05:49:32;;;;;;;5.07;4.60;;;14.10;99.90;;;;;;5077032;28;20263;-50
2023/05/12 05:52:01;;;;;;;6.77;4.33;;;14.10;99.90;;;;;;5076063;28;21342;-48
2023/05/12 05:54:28;;;;;;;8.43;4.53;;;14.20;99.90;;;;;;5060853;28;20190;-53
2023/05/12 05:56:55;;;;;;;9.10;4.87;;;14.20;99.90;;;;;;5065514;28;20205;-54
2023/05/12 05:59:23;;;;;;;8.30;4.17;;;14.30;99.90;;;;;;5067296;28;20226;-55
2023/05/12 06:01:51;;;;;;;4.30;3.90;;;14.40;99.90;;;;;;5076491;28;20191;-55
2023/05/12 06:04:18;;;;;;;4.53;4.17;;;14.40;99.90;;;;;;5057629;28;20343;-53
2023/05/12 06:06:47;;;;;;;5.60;4.70;;;14.50;99.90;;;;;;5076741;28;20273;-55
2023/05/12 06:09:14;;;;;;;5.17;4.77;;;14.50;99.90;;;;;;5061472;28;20213;-55
2023/05/12 06:11:41;;;;;;;4.57;4.03;;;14.60;99.90;;;;;;5077484;28;20193;-53
2023/05/12 06:14:08;;;;;;;5.17;4.30;;;14.60;99.90;;;;;;5067141;28;20202;-54
2023/05/12 06:16:34;;;;;;;4.50;4.10;;;14.70;99.90;;;;;;5061997;28;20350;-53
2023/05/12 06:19:03;;;;;;;4.43;3.87;;;14.80;99.90;;;;;;5059172;28;20225;-55
2023/05/12 06:21:31;;;;;;;7.43;4.23;;;14.90;99.90;;;;;;5069073;28;21150;-50
2023/05/12 06:23:57;;;;;;;4.70;3.87;;;14.90;99.90;;;;;;5065731;28;20790;-52
2023/05/12 06:26:24;;;;;;;6.47;3.93;;;15.00;99.90;;;;;;5069296;28;20189;-54
2023/05/12 06:29:10;;;;;;;5.03;4.03;;;15.10;99.90;;;;;;5071212;28;20311;-57
2023/05/12 06:31:36;;;;;;;5.20;4.13;;;15.20;99.90;;;;;;5070518;28;20198;-55
2023/05/12 06:34:26;;;;;;;4.90;3.83;;;15.30;99.90;;;;;;5056169;28;20213;-56
2023/05/12 06:36:54;;;;;;;3.70;3.40;;;15.40;99.90;;;;;;5068024;28;20190;-55
2023/05/12 06:39:20;;;;;;;4.70;4.20;;;15.40;99.90;;;;;;5070515;28;20213;-53
2023/05/12 06:41:47;;;;;;;4.77;3.90;;;15.50;99.90;;;;;;5068835;28;20186;-55
2023/05/12 06:44:20;;;;;;;4.03;3.73;;;15.50;99.90;;;;;;5066204;28;20671;-55
2023/05/12 06:46:51;;;;;;;4.50;4.07;;;15.50;99.90;;;;;;5069271;28;20190;-53
2023/05/12 06:49:20;;;;;;;5.27;4.13;;;15.60;99.90;;;;;;5049855;28;22039;-53
2023/05/12 06:51:48;;;;;;;5.60;4.27;;;15.60;99.90;;;;;;5065105;28;20198;-54
2023/05/12 06:54:14;;;;;;;7.27;4.07;;;15.70;99.90;;;;;;5071169;28;20192;-56
2023/05/12 06:56:42;;;;;;;4.33;3.93;;;15.80;99.90;;;;;;5075196;28;20244;-52
2023/05/12 06:59:09;;;;;;;6.03;4.00;;;15.90;99.90;;;;;;5059374;28;20209;-54
2023/05/12 07:01:58;;;;;;;5.03;3.70;;;16.00;99.90;;;;;;5066330;28;20312;-51
2023/05/12 07:04:25;;;;;;;5.10;3.97;;;16.10;99.90;;;;;;5070746;28;20198;-54
2023/05/12 07:06:55;;;;;;;4.83;4.10;;;16.20;99.90;;;;;;5062438;28;20194;-56
2023/05/12 07:09:22;;;;;;;4.17;3.87;;;16.30;99.90;;;;;;5075882;28;20212;-56
2023/05/12 07:11:49;;;;;;;4.47;3.70;;;16.30;99.90;;;;;;5077763;28;20933;-48
2023/05/12 07:14:17;;;;;;;5.57;3.93;;;16.40;99.90;;;;;;5075968;28;20197;-48
2023/05/12 07:16:44;;;;;;;4.87;3.53;;;16.40;99.90;;;;;;5062925;28;20219;-51
2023/05/12 07:19:10;;;;;;;4.63;3.90;;;16.40;99.90;;;;;;5068307;28;20229;-53
2023/05/12 07:22:00;;;;;;;6.33;3.90;;;16.40;99.90;;;;;;5073788;28;20224;-51
2023/05/12 07:24:28;;;;;;;4.67;3.60;;;16.40;99.90;;;;;;5078312;28;20193;-58
2023/05/12 07:26:55;;;;;;;4.50;4.10;;;16.50;99.90;;;;;;5080150;28;20186;-54
2023/05/12 07:29:22;;;;;;;3.93;3.63;;;16.50;99.90;;;;;;5077011;28;20225;-48
2023/05/12 07:31:49;;;;;;;4.30;3.90;;;16.60;99.90;;;;;;5071449;28;20292;-53
2023/05/12 07:34:16;;;;;;;4.90;3.63;;;16.70;99.90;;;;;;5065287;28;20226;-49
2023/05/12 07:36:43;;;;;;;8.67;3.67;;;16.80;99.90;;;;;;5060256;28;20308;-52
2023/05/12 07:39:12;;;;;;;8.73;4.07;;;16.80;99.90;;;;;;5081621;28;20247;-51
2023/05/12 07:41:39;;;;;;;4.90;4.00;;;16.90;99.90;;;;;;5079231;28;20212;-56
2023/05/12 07:44:06;;;;;;;4.13;3.50;;;16.90;99.90;;;;;;5079597;28;20186;-53
2023/05/12 07:46:33;;;;;;;5.10;3.50;;;17.00;99.90;;;;;;5072692;28;20190;-57
2023/05/12 07:49:00;;;;;;;9.60;4.23;;;17.10;99.90;;;;;;5059330;28;20329;-49
2023/05/12 07:51:27;;;;;;;4.50;4.10;;;17.20;99.90;;;;;;5061152;28;20687;-55
2023/05/12 07:53:56;;;;;;;4.27;3.73;;;17.20;99.90;;;;;;5075201;28;20198;-46
2023/05/12 07:56:24;;;;;;;4.37;3.97;;;17.40;99.90;;;;;;5078945;28;20194;-50
2023/05/12 07:58:51;;;;;;;4.33;3.93;;;17.40;99.90;;;;;;5072084;28;20213;-53
2023/05/12 08:01:18;;;;;;;4.67;3.50;;;17.50;99.90;;;;;;5070290;28;20194;-58
2023/05/12 08:03:44;;;;;;;3.77;3.33;;;17.50;99.90;;;;;;5061896;28;20210;-49
2023/05/12 08:06:11;;;;;;;5.30;4.07;;;17.60;99.90;;;;;;5082404;28;20194;-51
2023/05/12 08:08:38;;;;;;;4.10;3.73;;;17.70;99.90;;;;;;5059188;28;20210;-58
2023/05/12 08:11:05;;;;;;;4.23;3.70;;;17.80;99.90;;;;;;5080648;28;20718;-53
2023/05/12 08:13:33;;;;;;;3.87;3.47;;;17.90;99.90;;;;;;5067683;28;20699;-57
2023/05/12 08:16:00;;;;;;;6.93;3.90;;;18.00;99.90;;;;;;5075723;28;20186;-49
2023/05/12 08:18:28;;;;;;;3.90;3.57;;;18.10;99.90;;;;;;5069554;28;20199;-57
2023/05/12 08:20:56;;;;;;;4.93;4.20;;;18.20;99.90;;;;;;5063334;28;20222;-49
2023/05/12 08:23:26;;;;;;;5.43;3.67;;;18.30;99.90;;;;;;5049434;28;20198;-54
2023/05/12 08:25:53;;;;;;;4.87;3.43;;;18.40;99.90;;;;;;5067415;28;20201;-51
2023/05/12 08:28:20;;;;;;;4.00;3.70;;;18.60;99.90;;;;;;5069088;28;20224;-55
2023/05/12 08:31:11;;;;;;;4.33;3.20;;;18.70;99.90;;;;;;5080032;28;20210;-56
2023/05/12 08:33:39;;;;;;;6.57;3.50;;;;;;;;;;5072284;28;20201;-45
2023/05/12 08:36:24;;;;;;;5.40;3.70;;;19.00;99.90;;;;;;5066057;28;20351;-55
2023/05/12 08:38:51;;;;;;;6.17;3.73;;;19.10;99.90;;;;;;5056484;28;20218;-51
2023/05/12 08:41:22;;;;;;;4.33;3.93;;;19.20;99.90;;;;;;5064993;28;20290;-56
2023/05/12 08:43:50;;;;;;;5.17;3.97;;;19.20;99.90;;;;;;5078969;28;20203;-45
2023/05/12 08:46:19;;;;;;;6.53;3.40;;;19.30;99.90;;;;;;5079144;28;20202;-52
2023/05/12 08:48:50;;;;;;;5.77;3.77;;;19.30;99.90;;;;;;5081224;28;20222;-46
2023/05/12 08:51:19;;;;;;;4.97;3.83;;;19.40;99.90;;;;;;5072107;28;20202;-53
2023/05/12 08:53:49;;;;;;;5.30;3.30;;;19.40;99.90;;;;;;5057771;28;20236;-45
2023/05/12 08:56:20;;;;;;;4.97;3.53;;;19.50;99.90;;;;;;5066498;28;20218;-55
2023/05/12 08:58:47;;;;;;;4.83;3.57;;;19.60;99.90;;;;;;5081511;28;20255;-56
2023/05/12 09:01:16;;;;;;;7.93;3.13;;;19.70;99.90;;;;;;5076036;28;20203;-51
2023/05/12 09:03:46;;;;;;;3.77;3.07;;;19.90;99.90;;;;;;5077637;28;20212;-50
2023/05/12 09:06:13;;;;;;;3.93;3.07;;;20.00;99.90;;;;;;5082869;28;20255;-45
2023/05/12 09:08:41;;;;;;;4.77;2.80;;;20.20;99.90;;;;;;5059108;28;20202;-49
2023/05/12 09:11:12;;;;;;;3.27;2.97;;;20.20;99.90;;;;;;5056753;28;20206;-48
2023/05/12 09:13:48;;;;;;;3.53;3.10;;;20.20;99.90;;;;;;5077302;28;20340;-48
2023/05/12 09:16:21;;;;;;;3.50;3.20;;;20.30;99.60;;;;;;5072130;28;20289;-47
2023/05/12 09:18:52;;;;;;;3.80;3.17;;;20.30;99.30;;;;;;5082432;28;20225;-53
2023/05/12 09:21:19;;;;;;;3.43;2.93;;;20.40;99.20;;;;;;5072161;28;20664;-49
2023/05/12 09:23:56;;;;;;;5.83;3.23;;;20.50;98.60;;;;;;5068084;28;20686;-53
2023/05/12 09:26:25;;;;;;;3.30;3.00;;;20.50;98.20;;;;;;5058815;28;20209;-51
2023/05/12 09:28:53;;;;;;;5.90;3.27;;;20.70;97.60;;;;;;5082858;28;20305;-50
2023/05/12 09:31:23;;;;;;;6.17;3.07;;;20.70;97.60;;;;;;5076737;28;20268;-51
2023/05/12 09:33:52;;;;;;;4.87;2.80;;;20.70;96.30;;;;;;5070649;28;20201;-45
2023/05/12 09:36:20;;;;;;;7.10;2.90;;;20.80;95.60;;;;;;5068908;28;20221;-50
2023/05/12 09:38:47;;;;;;;5.60;3.10;;;20.80;95.80;;;;;;5060844;28;20222;-52
2023/05/12 09:41:22;;;;;;;3.07;2.77;;;20.90;94.90;;;;;;5063131;28;20218;-50
2023/05/12 09:43:52;;;;;;;5.63;3.17;;;20.90;92.60;;;;;;5081500;28;20199;-51
2023/05/12 09:46:19;;;;;;;3.47;3.17;;;20.90;94.40;;;;;;5077436;28;20200;-50
2023/05/12 09:48:47;;;;;;;5.77;3.07;;;21.00;93.60;;;;;;5077141;28;20217;-51
2023/05/12 09:51:18;;;;;;;2.97;2.60;;;;;;;;;;5071164;28;20913;-50
2023/05/12 09:53:45;;;;;;;3.87;3.10;;;21.20;93.50;;;;;;5080911;28;20251;-51
2023/05/12 09:56:14;;;;;;;4.05;2.70;;;21.30;93.70;;;;;;5052491;28;20214;-51
2023/05/12 09:58:43;;;;;;;5.55;3.13;;;21.30;92.80;;;;;;5075635;28;20689;-54
2023/05/12 10:01:12;;;;;;;6.75;3.00;;;21.30;93.10;;;;;;5068422;28;20206;-56
2023/05/12 10:03:41;;;;;;;4.73;3.00;;;21.40;92.80;;;;;;5069077;28;20195;-55
2023/05/12 10:06:12;;;;;;;7.47;2.83;;;21.50;92.40;;;;;;5063909;28;20206;-54
2023/05/12 10:09:09;;;;;;;2.73;2.53;;;21.50;92.10;;;;;;5076704;28;20241;-49
2023/05/12 10:11:36;;;;;;;3.47;3.00;;;21.50;90.90;;;;;;5049473;28;20663;-55
2023/05/12 10:14:05;;;;;;;2.85;2.63;;;21.50;89.20;;;;;;5073028;28;20286;-52
2023/05/12 10:16:33;;;;;;;2.90;2.67;;;21.60;86.90;;;;;;5071873;28;20190;-53
2023/05/12 10:19:01;;;;;;;4.47;3.20;;;21.60;87.80;;;;;;5066200;28;20229;-53
2023/05/12 10:21:28;;;;;;;4.53;3.22;;;21.70;87.80;;;;;;5071596;28;20218;-56
2023/05/12 10:23:57;;;;;;;5.68;3.00;;;21.60;89.30;;;;;;5075472;28;20182;-53
2023/05/12 10:26:26;;;;;;;4.28;3.05;;;21.40;89.40;;;;;;5064323;28;20209;-57
2023/05/12 10:28:53;;;;;;;6.53;3.67;;;21.40;90.20;;;;;;5060692;28;20771;-57
2023/05/12 10:31:23;;;;;;;5.57;3.67;;;21.20;91.20;;;;;;5059259;28;20288;-53
2023/05/12 10:34:16;;;;;;;7.95;3.55;;;21.20;90.90;;;;;;5073853;28;20201;-51
2023/05/12 10:36:46;;;;;;;6.73;2.93;;;21.30;90.60;;;;;;5074680;28;20209;-57
2023/05/12 10:39:14;;;;;;;4.03;3.55;;;21.20;90.90;;;;;;5070927;28;20232;-54
2023/05/12 10:41:42;;;;;;;6.10;2.65;;;21.10;91.10;;;;;;5065947;28;20295;-55
2023/05/12 10:44:10;;;;;;;5.10;3.47;;;21.10;91.50;;;;;;5054813;28;20210;-52
2023/05/12 10:46:37;;;;;;;3.35;3.05;;;21.10;91.20;;;;;;5066722;28;20275;-55
2023/05/12 10:49:08;;;;;;;5.13;3.03;;;21.20;91.20;;;;;;5073144;28;20229;-48
2023/05/12 10:51:48;;;;;;;4.28;3.08;;;21.40;90.30;;;;;;5070972;28;20205;-55
2023/05/12 10:54:21;;;;;;;6.28;2.97;;;21.40;89.80;;;;;;5071083;28;20311;-56
2023/05/12 10:56:49;;;;;;;4.93;3.47;;;21.20;90.00;;;;;;5061215;28;20206;-50
2023/05/12 10:59:18;;;;;;;4.78;3.35;;;21.10;90.30;;;;;;5042911;28;20217;-56
2023/05/12 11:02:01;;;;;;;3.30;2.90;;;21.10;89.10;;;;;;5064540;28;20257;-55
2023/05/12 11:04:40;;;;;;;5.05;2.97;;;21.20;89.90;;;;;;5075549;28;20243;-55
2023/05/12 11:07:08;;;;;;;3.80;3.10;;;21.30;90.30;;;;;;5066633;28;20198;-54
2023/05/12 11:09:36;;;;;;;5.18;2.83;;;21.40;89.00;;;;;;5072961;28;20206;-52
2023/05/12 11:12:06;;;;;;;5.72;3.58;;;21.50;88.40;;;;;;5062878;28;20206;-50
2023/05/12 11:14:33;;;;;;;3.08;2.83;;;21.70;85.70;;;;;;5054167;28;20197;-50
2023/05/12 11:17:00;;;;;;;4.25;2.58;;;21.80;84.70;;;;;;5077495;28;20200;-53
2023/05/12 11:19:28;;;;;;;5.00;2.80;;;21.90;83.80;;;;;;5079599;28;20266;-54
2023/05/12 11:21:55;;;;;;;4.90;2.88;;;22.00;83.50;;;;;;5078616;28;20243;-51
2023/05/12 11:24:23;;;;;;;4.03;2.67;;;22.10;81.80;;;;;;5077218;28;20190;-47
2023/05/12 11:26:52;;;;;;;3.22;2.58;;;22.10;79.90;;;;;;5071848;28;20480;-53
2023/05/12 11:29:21;;;;;;;2.80;2.60;;;22.10;77.40;;;;;;5040594;28;20219;-50
2023/05/12 11:31:48;;;;;;;6.13;2.85;;;22.00;73.70;;;;;;5082567;28;20660;-55
2023/05/12 11:34:20;;;;;;;6.63;2.63;;;22.10;72.70;;;;;;5066597;28;20528;-55
2023/05/12 11:36:47;;;;;;;6.63;2.90;;;22.20;72.50;;;;;;5075411;28;20204;-53
2023/05/12 11:39:36;;;;;;;2.92;2.67;;;22.30;70.90;;;;;;5063547;28;20310;-48
2023/05/12 11:42:04;;;;;;;3.35;2.60;;;22.10;67.90;;;;;;5063246;28;20890;-52
2023/05/12 11:44:32;;;;;;;3.40;2.38;;;21.90;70.20;;;;;;5043557;28;20305;-54
2023/05/12 11:47:00;;;;;;;3.65;2.78;;;21.70;69.90;;;;;;5079836;28;20273;-56
2023/05/12 11:49:29;;;;;;;4.55;2.90;;;21.70;73.20;;;;;;5067603;28;20227;-55
2023/05/12 11:51:58;;;;;;;3.40;2.80;;;21.60;73.90;;;;;;5071182;28;20931;-54
2023/05/12 11:54:28;;;;;;;2.90;2.65;;;21.80;71.80;;;;;;5065148;28;20194;-55
2023/05/12 11:57:26;;;;;;;4.10;2.67;;;22.00;73.10;;;;;;5068023;28;20209;-54
2023/05/12 11:59:58;;;;;;;4.72;3.00;;;22.30;71.10;;;;;;5047717;28;20225;-50
2023/05/12 12:02:47;;;;;;;7.22;2.65;;;22.30;68.70;;;;;;5070928;28;20982;-51
2023/05/12 12:05:16;;;;;;;4.30;2.53;;;22.40;69.80;;;;;;5073616;28;20221;-50
2023/05/12 12:07:43;;;;;;;3.67;2.40;;;22.40;69.50;;;;;;5064173;28;20209;-53
2023/05/12 12:10:12;;;;;;;4.45;2.30;;;22.50;67.70;;;;;;5066237;28;20211;-51
2023/05/12 12:12:39;;;;;;;3.60;2.55;;;22.50;66.50;;;;;;5080356;28;20186;-52
2023/05/12 12:15:09;;;;;;;2.88;2.45;;;22.50;66.60;;;;;;5068424;28;20687;-50
2023/05/12 12:17:36;;;;;;;3.63;2.40;;;22.50;66.90;;;;;;5067673;28;20900;-51
2023/05/12 12:20:03;;;;;;;4.72;2.65;;;22.50;68.00;;;;;;5080183;28;20228;-50
2023/05/12 12:22:32;;;;;;;6.80;2.33;;;22.70;67.80;;;;;;5067442;28;20201;-53
2023/05/12 12:24:59;;;;;;;2.65;2.28;;;22.70;65.00;;;;;;5080878;28;20281;-53
2023/05/12 12:27:26;;;;;;;2.20;2.10;;;22.70;62.00;;;;;;5074824;28;20278;-52
2023/05/12 12:29:53;;;;;;;3.38;2.15;;;22.70;61.40;;;;;;5065379;28;20699;-52
2023/05/12 12:32:21;;;;;;;5.00;2.25;;;22.70;61.60;;;;;;5056515;28;20205;-51
2023/05/12 12:34:48;;;;;;;2.78;2.58;;;22.80;62.70;;;;;;5075404;28;20202;-53
2023/05/12 12:37:16;;;;;;;2.95;2.60;;;22.90;62.60;;;;;;5070027;28;20281;-51
2023/05/12 12:39:43;;;;;;;2.92;2.30;;;23.00;60.90;;;;;;5078916;28;20719;-53
2023/05/12 12:42:09;;;;;;;4.45;2.17;;;23.00;61.10;;;;;;5074178;28;20215;-55
2023/05/12 12:44:37;;;;;;;3.00;2.40;;;23.00;60.50;;;;;;5082036;28;20221;-52
2023/05/12 12:47:04;;;;;;;4.65;2.53;;;23.10;61.90;;;;;;5051662;28;20213;-54
2023/05/12 12:49:32;;;;;;;2.25;2.13;;;23.20;62.70;;;;;;5070456;28;20287;-50
2023/05/12 12:51:59;;;;;;;3.42;2.50;;;23.40;61.70;;;;;;5071494;28;20182;-52
2023/05/12 12:54:27;;;;;;;4.72;2.92;;;;;;;;;;5064458;28;20203;-52
2023/05/12 12:56:54;;;;;;;3.58;2.30;;;23.90;53.50;;;;;;5072121;28;20795;-54